sensor_id;sensor_type;location;lat;lon;timestamp;pressure;altitude;pressure_sealevel;temperature;humidity
55068;BME280;40965;52.368;9.712;2024-02-21T00:01:51;101406.78;;;8.33;100.00
55068;BME280;40965;52.368;9.712;2024-02-21T00:04:18;101408.47;;;8.30;100.00
55068;BME280;40965;52.368;9.712;2024-02-21T00:06:44;101403.28;;;8.34;100.00
55068;BME280;40965;52.368;9.712;2024-02-21T00:09:11;101407.63;;;8.32;100.00
55068;BME280;40965;52.368;9.712;2024-02-21T00:11:39;101399.75;;;8.29;100.00
55068;BME280;40965;52.368;9.712;2024-02-21T00:14:05;101405.03;;;8.34;100.00
55068;BME280;40965;52.368;9.712;2024-02-21T00:16:32;101393.75;;;8.35;100.00
55068;BME280;40965;52.368;9.712;2024-02-21T00:18:58;101388.53;;;8.35;100.00
55068;BME280;40965;52.368;9.712;2024-02-21T00:21:25;101385.91;;;8.33;100.00
55068;BME280;40965;52.368;9.712;2024-02-21T00:23:52;101382.38;;;8.31;100.00
55068;BME280;40965;52.368;9.712;2024-02-21T00:26:18;101381.53;;;8.32;100.00
55068;BME280;40965;52.368;9.712;2024-02-21T00:28:45;101372.81;;;8.32;100.00
55068;BME280;40965;52.368;9.712;2024-02-21T00:31:11;101377.19;;;8.34;100.00
55068;BME280;40965;52.368;9.712;2024-02-21T00:33:38;101373.72;;;8.34;100.00
55068;BME280;40965;52.368;9.712;2024-02-21T00:36:04;101364.97;;;8.30;100.00
55068;BME280;40965;52.368;9.712;2024-02-21T00:38:31;101366.75;;;8.31;100.00
55068;BME280;40965;52.368;9.712;2024-02-21T00:41:00;101368.50;;;8.32;100.00
55068;BME280;40965;52.368;9.712;2024-02-21T00:43:27;101359.75;;;8.28;100.00
55068;BME280;40965;52.368;9.712;2024-02-21T00:45:53;101358.91;;;8.31;100.00
55068;BME280;40965;52.368;9.712;2024-02-21T00:48:20;101363.22;;;8.29;100.00
55068;BME280;40965;52.368;9.712;2024-02-21T00:50:46;101361.50;;;8.28;100.00
55068;BME280;40965;52.368;9.712;2024-02-21T00:53:13;101352.00;;;8.33;100.00
55068;BME280;40965;52.368;9.712;2024-02-21T00:55:40;101337.19;;;8.31;100.00
55068;BME280;40965;52.368;9.712;2024-02-21T00:58:08;101331.06;;;8.30;100.00
55068;BME280;40965;52.368;9.712;2024-02-21T01:00:35;101329.34;;;8.31;100.00
55068;BME280;40965;52.368;9.712;2024-02-21T01:03:02;101326.75;;;8.34;100.00
55068;BME280;40965;52.368;9.712;2024-02-21T01:05:29;101330.19;;;8.30;100.00
55068;BME280;40965;52.368;9.712;2024-02-21T01:07:55;101323.31;;;8.36;100.00
55068;BME280;40965;52.368;9.712;2024-02-21T01:10:22;101331.16;;;8.38;100.00
55068;BME280;40965;52.368;9.712;2024-02-21T01:12:50;101331.16;;;8.38;100.00
55068;BME280;40965;52.368;9.712;2024-02-21T01:15:16;101312.06;;;8.40;100.00
55068;BME280;40965;52.368;9.712;2024-02-21T01:17:43;101302.53;;;8.44;100.00
55068;BME280;40965;52.368;9.712;2024-02-21T01:20:10;101311.19;;;8.41;100.00
55068;BME280;40965;52.368;9.712;2024-02-21T01:22:36;101311.13;;;8.37;100.00
55068;BME280;40965;52.368;9.712;2024-02-21T01:25:03;101308.59;;;8.41;100.00
55068;BME280;40965;52.368;9.712;2024-02-21T01:27:30;101300.78;;;8.43;100.00
55068;BME280;40965;52.368;9.712;2024-02-21T01:29:57;101308.69;;;8.48;100.00
55068;BME280;40965;52.368;9.712;2024-02-21T01:32:23;101305.19;;;8.47;100.00
55068;BME280;40965;52.368;9.712;2024-02-21T01:34:51;101292.09;;;8.42;100.00
55068;BME280;40965;52.368;9.712;2024-02-21T01:37:17;101294.75;;;8.47;100.00
55068;BME280;40965;52.368;9.712;2024-02-21T01:39:44;101293.91;;;8.50;100.00
55068;BME280;40965;52.368;9.712;2024-02-21T01:42:11;101293.91;;;8.51;100.00
55068;BME280;40965;52.368;9.712;2024-02-21T01:44:37;101287.84;;;8.52;100.00
55068;BME280;40965;52.368;9.712;2024-02-21T01:47:04;101294.81;;;8.52;100.00
55068;BME280;40965;52.368;9.712;2024-02-21T01:49:30;101287.84;;;8.52;100.00
55068;BME280;40965;52.368;9.712;2024-02-21T01:51:57;101282.63;;;8.49;100.00
55068;BME280;40965;52.368;9.712;2024-02-21T01:54:24;101273.88;;;8.47;100.00
55068;BME280;40965;52.368;9.712;2024-02-21T01:56:54;101287.84;;;8.52;100.00
55068;BME280;40965;52.368;9.712;2024-02-21T01:59:21;101283.53;;;8.54;100.00
55068;BME280;40965;52.368;9.712;2024-02-21T02:01:48;101267.88;;;8.54;100.00
55068;BME280;40965;52.368;9.712;2024-02-21T02:04:16;101269.63;;;8.55;100.00
55068;BME280;40965;52.368;9.712;2024-02-21T02:06:43;101273.09;;;8.56;100.00
55068;BME280;40965;52.368;9.712;2024-02-21T02:09:09;101261.81;;;8.55;100.00
55068;BME280;40965;52.368;9.712;2024-02-21T02:11:36;101271.41;;;8.59;100.00
55068;BME280;40965;52.368;9.712;2024-02-21T02:14:03;101266.22;;;8.64;100.00
55068;BME280;40965;52.368;9.712;2024-02-21T02:16:29;101262.72;;;8.62;100.00
55068;BME280;40965;52.368;9.712;2024-02-21T02:18:56;101253.13;;;8.59;100.00
55068;BME280;40965;52.368;9.712;2024-02-21T02:21:35;101242.66;;;8.56;100.00
55068;BME280;40965;52.368;9.712;2024-02-21T02:24:06;101246.16;;;8.60;100.00
55068;BME280;40965;52.368;9.712;2024-02-21T02:26:33;101233.97;;;8.56;100.00
55068;BME280;40965;52.368;9.712;2024-02-21T02:29:01;101230.50;;;8.57;100.00
55068;BME280;40965;52.368;9.712;2024-02-21T02:31:28;101224.38;;;8.55;100.00
55068;BME280;40965;52.368;9.712;2024-02-21T02:33:54;101226.19;;;8.60;100.00
55068;BME280;40965;52.368;9.712;2024-02-21T02:36:20;101217.44;;;8.57;100.00
55068;BME280;40965;52.368;9.712;2024-02-21T02:38:47;101221.78;;;8.56;100.00
55068;BME280;40965;52.368;9.712;2024-02-21T02:41:13;101217.50;;;8.63;100.00
55068;BME280;40965;52.368;9.712;2024-02-21T02:43:39;101211.31;;;8.53;100.00
55068;BME280;40965;52.368;9.712;2024-02-21T02:46:06;101202.63;;;8.56;100.00
55068;BME280;40965;52.368;9.712;2024-02-21T02:48:32;101200.94;;;8.59;100.00
55068;BME280;40965;52.368;9.712;2024-02-21T02:50:59;101194.81;;;8.54;100.00
55068;BME280;40965;52.368;9.712;2024-02-21T02:53:26;101190.50;;;8.61;100.00
55068;BME280;40965;52.368;9.712;2024-02-21T02:55:52;101196.56;;;8.58;100.00
55068;BME280;40965;52.368;9.712;2024-02-21T02:58:19;101193.13;;;8.61;100.00
55068;BME280;40965;52.368;9.712;2024-02-21T03:00:45;101187.88;;;8.58;100.00
55068;BME280;40965;52.368;9.712;2024-02-21T03:03:13;101187.88;;;8.58;100.00
55068;BME280;40965;52.368;9.712;2024-02-21T03:05:39;101177.41;;;8.55;100.00
55068;BME280;40965;52.368;9.712;2024-02-21T03:08:09;101171.34;;;8.59;100.00
55068;BME280;40965;52.368;9.712;2024-02-21T03:10:36;101161.78;;;8.58;100.00
55068;BME280;40965;52.368;9.712;2024-02-21T03:13:02;101161.78;;;8.58;100.00
55068;BME280;40965;52.368;9.712;2024-02-21T03:15:29;101140.88;;;8.56;100.00
55068;BME280;40965;52.368;9.712;2024-02-21T03:17:56;101123.47;;;8.54;100.00
55068;BME280;40965;52.368;9.712;2024-02-21T03:20:22;101128.72;;;8.60;100.00
55068;BME280;40965;52.368;9.712;2024-02-21T03:22:49;101119.13;;;8.54;100.00
55068;BME280;40965;52.368;9.712;2024-02-21T03:25:16;101105.19;;;8.54;100.00
55068;BME280;40965;52.368;9.712;2024-02-21T03:27:42;101112.16;;;8.50;100.00
55068;BME280;40965;52.368;9.712;2024-02-21T03:30:09;101097.38;;;8.52;100.00
55068;BME280;40965;52.368;9.712;2024-02-21T03:32:37;101109.53;;;8.52;100.00
55068;BME280;40965;52.368;9.712;2024-02-21T03:35:05;101105.19;;;8.54;100.00
55068;BME280;40965;52.368;9.712;2024-02-21T03:37:32;101105.19;;;8.54;100.00
55068;BME280;40965;52.368;9.712;2024-02-21T03:39:58;101094.78;;;8.57;100.00
55068;BME280;40965;52.368;9.712;2024-02-21T03:42:25;101086.13;;;8.59;100.00
55068;BME280;40965;52.368;9.712;2024-02-21T03:44:54;101081.75;;;8.58;100.00
55068;BME280;40965;52.368;9.712;2024-02-21T03:47:21;101082.59;;;8.56;100.00
55068;BME280;40965;52.368;9.712;2024-02-21T03:49:47;101086.06;;;8.55;100.00
55068;BME280;40965;52.368;9.712;2024-02-21T03:52:16;101093.94;;;8.61;100.00
55068;BME280;40965;52.368;9.712;2024-02-21T03:54:43;101089.59;;;8.58;100.00
55068;BME280;40965;52.368;9.712;2024-02-21T03:57:09;101085.22;;;8.56;100.00
55068;BME280;40965;52.368;9.712;2024-02-21T03:59:36;101105.25;;;8.61;100.00
55068;BME280;40965;52.368;9.712;2024-02-21T04:02:04;101100.03;;;8.61;100.00
55068;BME280;40965;52.368;9.712;2024-02-21T04:04:34;101100.88;;;8.59;100.00
55068;BME280;40965;52.368;9.712;2024-02-21T04:07:02;101122.66;;;8.61;100.00
55068;BME280;40965;52.368;9.712;2024-02-21T04:09:32;101132.22;;;8.62;100.00
55068;BME280;40965;52.368;9.712;2024-02-21T04:12:00;101129.63;;;8.64;100.00
55068;BME280;40965;52.368;9.712;2024-02-21T04:14:27;101132.25;;;8.64;100.00
55068;BME280;40965;52.368;9.712;2024-02-21T04:16:53;101154.03;;;8.69;100.00
55068;BME280;40965;52.368;9.712;2024-02-21T04:19:20;101143.59;;;8.67;100.00
55068;BME280;40965;52.368;9.712;2024-02-21T04:21:46;101141.84;;;8.69;100.00
55068;BME280;40965;52.368;9.712;2024-02-21T04:24:13;101129.63;;;8.65;100.00
55068;BME280;40965;52.368;9.712;2024-02-21T04:26:39;101124.47;;;8.70;100.00
55068;BME280;40965;52.368;9.712;2024-02-21T04:29:06;101121.81;;;8.67;100.00
55068;BME280;40965;52.368;9.712;2024-02-21T04:31:32;101133.16;;;8.67;100.00
55068;BME280;40965;52.368;9.712;2024-02-21T04:33:59;101132.22;;;8.62;100.00
55068;BME280;40965;52.368;9.712;2024-02-21T04:36:26;101134.00;;;8.63;100.00
55068;BME280;40965;52.368;9.712;2024-02-21T04:38:52;101136.56;;;8.57;100.00
55068;BME280;40965;52.368;9.712;2024-02-21T04:41:19;101126.13;;;8.58;100.00
55068;BME280;40965;52.368;9.712;2024-02-21T04:43:46;101125.25;;;8.58;100.00
55068;BME280;40965;52.368;9.712;2024-02-21T04:46:13;101126.13;;;8.58;100.00
55068;BME280;40965;52.368;9.712;2024-02-21T04:48:40;101125.22;;;8.56;100.00
55068;BME280;40965;52.368;9.712;2024-02-21T04:51:07;101125.22;;;8.56;100.00
55068;BME280;40965;52.368;9.712;2024-02-21T04:53:34;101133.94;;;8.58;100.00
55068;BME280;40965;52.368;9.712;2024-02-21T04:56:02;101141.78;;;8.60;100.00
55068;BME280;40965;52.368;9.712;2024-02-21T04:58:29;101136.56;;;8.57;100.00
55068;BME280;40965;52.368;9.712;2024-02-21T05:00:56;101133.03;;;8.53;100.00
55068;BME280;40965;52.368;9.712;2024-02-21T05:03:23;101131.31;;;8.57;100.00
55068;BME280;40965;52.368;9.712;2024-02-21T05:05:50;101126.06;;;8.49;100.00
55068;BME280;40965;52.368;9.712;2024-02-21T05:08:18;101132.19;;;8.54;100.00
55068;BME280;40965;52.368;9.712;2024-02-21T05:10:47;101130.41;;;8.52;100.00
55068;BME280;40965;52.368;9.712;2024-02-21T05:13:14;101120.84;;;8.52;100.00
55068;BME280;40965;52.368;9.712;2024-02-21T05:15:40;101122.59;;;8.49;100.00
55068;BME280;40965;52.368;9.712;2024-02-21T05:18:07;101119.13;;;8.53;100.00
55068;BME280;40965;52.368;9.712;2024-02-21T05:20:33;101111.25;;;8.50;100.00
55068;BME280;40965;52.368;9.712;2024-02-21T05:23:00;101115.63;;;8.48;100.00
55068;BME280;40965;52.368;9.712;2024-02-21T05:25:27;101119.97;;;8.49;100.00
55068;BME280;40965;52.368;9.712;2024-02-21T05:27:54;101121.69;;;8.51;100.00
55068;BME280;40965;52.368;9.712;2024-02-21T05:30:21;101111.25;;;8.48;100.00
55068;BME280;40965;52.368;9.712;2024-02-21T05:32:49;101111.22;;;8.43;100.00
55068;BME280;40965;52.368;9.712;2024-02-21T05:35:15;101112.06;;;8.41;100.00
55068;BME280;40965;52.368;9.712;2024-02-21T05:37:42;101102.50;;;8.43;100.00
55068;BME280;40965;52.368;9.712;2024-02-21T05:40:09;101115.53;;;8.43;100.00
55068;BME280;40965;52.368;9.712;2024-02-21T05:42:38;101100.72;;;8.36;100.00
55068;BME280;40965;52.368;9.712;2024-02-21T05:45:05;101094.66;;;8.40;100.00
55068;BME280;40965;52.368;9.712;2024-02-21T05:47:32;101113.81;;;8.43;100.00
55068;BME280;40965;52.368;9.712;2024-02-21T05:49:58;101105.94;;;8.42;100.00
55068;BME280;40965;52.368;9.712;2024-02-21T05:52:25;101105.94;;;8.42;100.00
55068;BME280;40965;52.368;9.712;2024-02-21T05:54:51;101104.19;;;8.39;100.00
55068;BME280;40965;52.368;9.712;2024-02-21T05:57:18;101104.16;;;8.33;100.00
55068;BME280;40965;52.368;9.712;2024-02-21T05:59:44;101104.19;;;8.35;100.00
55068;BME280;40965;52.368;9.712;2024-02-21T06:02:12;101100.72;;;8.39;100.00
55068;BME280;40965;52.368;9.712;2024-02-21T06:04:39;101100.69;;;8.34;100.00
55068;BME280;40965;52.368;9.712;2024-02-21T06:07:07;101102.47;;;8.40;100.00
55068;BME280;40965;52.368;9.712;2024-02-21T06:09:34;101097.22;;;8.34;100.00
55068;BME280;40965;52.368;9.712;2024-02-21T06:12:04;101088.47;;;8.30;100.00
55068;BME280;40965;52.368;9.712;2024-02-21T06:14:34;101096.34;;;8.36;100.00
55068;BME280;40965;52.368;9.712;2024-02-21T06:17:00;101099.81;;;8.35;100.00
55068;BME280;40965;52.368;9.712;2024-02-21T06:19:27;101088.56;;;8.41;100.00
55068;BME280;40965;52.368;9.712;2024-02-21T06:21:54;101096.34;;;8.36;100.00
55068;BME280;40965;52.368;9.712;2024-02-21T06:24:20;101078.97;;;8.37;100.00
55068;BME280;40965;52.368;9.712;2024-02-21T06:26:47;101078.94;;;8.34;100.00
55068;BME280;40965;52.368;9.712;2024-02-21T06:29:14;101081.56;;;8.37;100.00
55068;BME280;40965;52.368;9.712;2024-02-21T06:31:40;101069.38;;;8.31;100.00
55068;BME280;40965;52.368;9.712;2024-02-21T06:34:07;101072.88;;;8.38;100.00
55068;BME280;40965;52.368;9.712;2024-02-21T06:36:34;101073.72;;;8.34;100.00
55068;BME280;40965;52.368;9.712;2024-02-21T06:39:00;101071.13;;;8.31;100.00
55068;BME280;40965;52.368;9.712;2024-02-21T06:41:32;101069.34;;;8.28;100.00
55068;BME280;40965;52.368;9.712;2024-02-21T06:44:02;101067.59;;;8.28;100.00
55068;BME280;40965;52.368;9.712;2024-02-21T06:46:29;101075.44;;;8.27;100.00
55068;BME280;40965;52.368;9.712;2024-02-21T06:48:58;101073.72;;;8.32;100.00
55068;BME280;40965;52.368;9.712;2024-02-21T06:51:28;101077.25;;;8.36;100.00
55068;BME280;40965;52.368;9.712;2024-02-21T06:53:55;101072.03;;;8.37;100.00
55068;BME280;40965;52.368;9.712;2024-02-21T06:56:23;101078.94;;;8.34;100.00
55068;BME280;40965;52.368;9.712;2024-02-21T06:58:57;101080.66;;;8.30;100.00
55068;BME280;40965;52.368;9.712;2024-02-21T07:01:24;101078.03;;;8.24;100.00
55068;BME280;40965;52.368;9.712;2024-02-21T07:03:51;101079.78;;;8.31;100.00
55068;BME280;40965;52.368;9.712;2024-02-21T07:06:17;101086.75;;;8.31;100.00
55068;BME280;40965;52.368;9.712;2024-02-21T07:08:44;101073.69;;;8.26;100.00
55068;BME280;40965;52.368;9.712;2024-02-21T07:11:14;101072.81;;;8.28;100.00
55068;BME280;40965;52.368;9.712;2024-02-21T07:13:40;101070.22;;;8.27;100.00
55068;BME280;40965;52.368;9.712;2024-02-21T07:16:07;101085.88;;;8.32;100.00
55068;BME280;40965;52.368;9.712;2024-02-21T07:18:34;101080.69;;;8.35;100.00
55068;BME280;40965;52.368;9.712;2024-02-21T07:21:00;101071.97;;;8.34;100.00
55068;BME280;40965;52.368;9.712;2024-02-21T07:23:27;101072.03;;;8.42;100.00
55068;BME280;40965;52.368;9.712;2024-02-21T07:25:54;101072.94;;;8.44;100.00
55068;BME280;40965;52.368;9.712;2024-02-21T07:28:20;101073.88;;;8.46;100.00
55068;BME280;40965;52.368;9.712;2024-02-21T07:30:46;101064.19;;;8.39;100.00
55068;BME280;40965;52.368;9.712;2024-02-21T07:33:13;101068.56;;;8.43;100.00
55068;BME280;40965;52.368;9.712;2024-02-21T07:35:40;101069.50;;;8.47;100.00
55068;BME280;40965;52.368;9.712;2024-02-21T07:38:07;101073.88;;;8.49;100.00
55068;BME280;40965;52.368;9.712;2024-02-21T07:40:37;101073.88;;;8.48;100.00
55068;BME280;40965;52.368;9.712;2024-02-21T07:43:04;101079.09;;;8.51;100.00
55068;BME280;40965;52.368;9.712;2024-02-21T07:45:30;101067.75;;;8.46;100.00
55068;BME280;40965;52.368;9.712;2024-02-21T07:47:57;101084.31;;;8.48;100.00
55068;BME280;40965;52.368;9.712;2024-02-21T07:50:23;101080.84;;;8.49;100.00
55068;BME280;40965;52.368;9.712;2024-02-21T07:52:50;101080.00;;;8.53;100.00
55068;BME280;40965;52.368;9.712;2024-02-21T07:55:17;101084.31;;;8.54;100.00
55068;BME280;40965;52.368;9.712;2024-02-21T07:57:43;101073.03;;;8.55;100.00
55068;BME280;40965;52.368;9.712;2024-02-21T08:00:10;101071.31;;;8.57;100.00
55068;BME280;40965;52.368;9.712;2024-02-21T08:02:45;101071.31;;;8.60;100.00
55068;BME280;40965;52.368;9.712;2024-02-21T08:05:15;101073.97;;;8.63;100.00
55068;BME280;40965;52.368;9.712;2024-02-21T08:07:41;101066.19;;;8.74;100.00
55068;BME280;40965;52.368;9.712;2024-02-21T08:10:08;101070.56;;;8.78;100.00
55068;BME280;40965;52.368;9.712;2024-02-21T08:12:35;101061.00;;;8.80;100.00
55068;BME280;40965;52.368;9.712;2024-02-21T08:15:02;101062.72;;;8.80;100.00
55068;BME280;40965;52.368;9.712;2024-02-21T08:17:29;101068.78;;;8.74;100.00
55068;BME280;40965;52.368;9.712;2024-02-21T08:19:56;101073.16;;;8.76;100.00
55068;BME280;40965;52.368;9.712;2024-02-21T08:22:22;101072.31;;;8.79;100.00
55068;BME280;40965;52.368;9.712;2024-02-21T08:24:49;101067.94;;;8.80;100.00
55068;BME280;40965;52.368;9.712;2024-02-21T08:27:15;101066.22;;;8.85;100.00
55068;BME280;40965;52.368;9.712;2024-02-21T08:29:42;101055.78;;;8.86;100.00
55068;BME280;40965;52.368;9.712;2024-02-21T08:32:08;101052.31;;;8.89;100.00
55068;BME280;40965;52.368;9.712;2024-02-21T08:34:35;101053.22;;;8.94;100.00
55068;BME280;40965;52.368;9.712;2024-02-21T08:37:01;101050.59;;;8.91;100.00
55068;BME280;40965;52.368;9.712;2024-02-21T08:39:28;101047.94;;;8.85;100.00
55068;BME280;40965;52.368;9.712;2024-02-21T08:41:56;101042.78;;;8.91;100.00
55068;BME280;40965;52.368;9.712;2024-02-21T08:44:23;101038.44;;;8.99;100.00
55068;BME280;40965;52.368;9.712;2024-02-21T08:46:51;101035.81;;;8.98;100.00
55068;BME280;40965;52.368;9.712;2024-02-21T08:49:17;101026.31;;;9.09;100.00
55068;BME280;40965;52.368;9.712;2024-02-21T08:51:44;101022.81;;;9.13;100.00
55068;BME280;40965;52.368;9.712;2024-02-21T08:54:11;101023.72;;;9.18;100.00
55068;BME280;40965;52.368;9.712;2024-02-21T08:56:38;101015.03;;;9.32;100.00
55068;BME280;40965;52.368;9.712;2024-02-21T08:59:04;101019.38;;;9.28;100.00
55068;BME280;40965;52.368;9.712;2024-02-21T09:01:31;101021.13;;;9.34;100.00
55068;BME280;40965;52.368;9.712;2024-02-21T09:03:59;101019.38;;;9.26;100.00
55068;BME280;40965;52.368;9.712;2024-02-21T09:06:25;101016.75;;;9.26;100.00
55068;BME280;40965;52.368;9.712;2024-02-21T09:08:53;101012.44;;;9.36;100.00
55068;BME280;40965;52.368;9.712;2024-02-21T09:11:20;101007.22;;;9.35;100.00
55068;BME280;40965;52.368;9.712;2024-02-21T09:13:46;101007.19;;;9.39;100.00
55068;BME280;40965;52.368;9.712;2024-02-21T09:16:15;101012.47;;;9.52;100.00
55068;BME280;40965;52.368;9.712;2024-02-21T09:18:45;101015.06;;;9.56;100.00
55068;BME280;40965;52.368;9.712;2024-02-21T09:21:12;101002.00;;;9.55;100.00
55068;BME280;40965;52.368;9.712;2024-02-21T09:23:38;101003.75;;;9.73;100.00
55068;BME280;40965;52.368;9.712;2024-02-21T09:26:05;101000.25;;;10.03;100.00
55068;BME280;40965;52.368;9.712;2024-02-21T09:28:31;101002.00;;;9.95;100.00
55068;BME280;40965;52.368;9.712;2024-02-21T09:30:59;100997.63;;;10.02;99.84
55068;BME280;40965;52.368;9.712;2024-02-21T09:33:27;100989.78;;;10.05;98.93
55068;BME280;40965;52.368;9.712;2024-02-21T09:35:53;100988.06;;;10.05;98.53
55068;BME280;40965;52.368;9.712;2024-02-21T09:38:20;100988.06;;;9.96;98.10
55068;BME280;40965;52.368;9.712;2024-02-21T09:40:46;100989.78;;;10.05;97.94
55068;BME280;40965;52.368;9.712;2024-02-21T09:43:17;100989.78;;;10.05;97.57
55068;BME280;40965;52.368;9.712;2024-02-21T09:45:46;100985.44;;;9.91;95.46
55068;BME280;40965;52.368;9.712;2024-02-21T09:51:12;100988.06;;;9.91;93.12
55068;BME280;40965;52.368;9.712;2024-02-21T09:53:42;100988.06;;;10.05;92.70
55068;BME280;40965;52.368;9.712;2024-02-21T09:56:09;100988.88;;;10.31;91.12
55068;BME280;40965;52.368;9.712;2024-02-21T09:58:37;100988.00;;;10.24;89.37
55068;BME280;40965;52.368;9.712;2024-02-21T10:01:04;100981.91;;;10.20;88.98
55068;BME280;40965;52.368;9.712;2024-02-21T10:03:34;100980.16;;;10.30;88.37
55068;BME280;40965;52.368;9.712;2024-02-21T10:06:01;100988.88;;;10.27;88.03
55068;BME280;40965;52.368;9.712;2024-02-21T10:08:28;100995.88;;;10.18;88.19
55068;BME280;40965;52.368;9.712;2024-02-21T10:10:55;100989.75;;;10.20;88.23
55068;BME280;40965;52.368;9.712;2024-02-21T10:13:29;100989.81;;;10.06;87.67
55068;BME280;40965;52.368;9.712;2024-02-21T10:16:03;100973.22;;;10.00;88.41
55068;BME280;40965;52.368;9.712;2024-02-21T10:18:31;100972.34;;;10.05;87.22
55068;BME280;40965;52.368;9.712;2024-02-21T10:21:05;100961.88;;;10.10;86.84
55068;BME280;40965;52.368;9.712;2024-02-21T10:23:51;100967.97;;;10.26;86.88
55068;BME280;40965;52.368;9.712;2024-02-21T10:26:19;100957.47;;;10.29;87.00
55068;BME280;40965;52.368;9.712;2024-02-21T10:28:47;100950.53;;;10.19;87.62
55068;BME280;40965;52.368;9.712;2024-02-21T10:31:27;100940.88;;;10.35;87.11
55068;BME280;40965;52.368;9.712;2024-02-21T10:34:01;100944.38;;;10.38;86.60
55068;BME280;40965;52.368;9.712;2024-02-21T10:36:29;100935.66;;;10.39;85.69
55068;BME280;40965;52.368;9.712;2024-02-21T10:38:55;100943.47;;;10.50;84.90
55068;BME280;40965;52.368;9.712;2024-02-21T10:41:23;100935.56;;;10.59;82.48
55068;BME280;40965;52.368;9.712;2024-02-21T10:43:52;100920.72;;;10.65;81.81
55068;BME280;40965;52.368;9.712;2024-02-21T10:46:23;100924.09;;;10.87;81.63
55068;BME280;40965;52.368;9.712;2024-02-21T10:49:16;100915.38;;;10.83;80.06
55068;BME280;40965;52.368;9.712;2024-02-21T10:52:06;100915.38;;;10.82;79.99
55068;BME280;40965;52.368;9.712;2024-02-21T10:57:22;100918.06;;;10.75;78.66
55068;BME280;40965;52.368;9.712;2024-02-21T10:59:48;100910.19;;;10.74;77.97
55068;BME280;40965;52.368;9.712;2024-02-21T11:02:16;100902.25;;;10.88;77.23
55068;BME280;40965;52.368;9.712;2024-02-21T11:04:43;100910.16;;;10.82;78.41
55068;BME280;40965;52.368;9.712;2024-02-21T11:07:11;100904.75;;;11.08;77.37
55068;BME280;40965;52.368;9.712;2024-02-21T11:09:37;100888.03;;;11.24;76.68
55068;BME280;40965;52.368;9.712;2024-02-21T11:12:05;100874.22;;;11.07;75.79
55068;BME280;40965;52.368;9.712;2024-02-21T11:14:33;100880.28;;;11.09;75.85
55068;BME280;40965;52.368;9.712;2024-02-21T11:17:02;100872.41;;;11.11;75.57
55068;BME280;40965;52.368;9.712;2024-02-21T11:19:29;100868.78;;;11.32;75.53
55068;BME280;40965;52.368;9.712;2024-02-21T11:21:57;100863.72;;;11.04;75.28
55068;BME280;40965;52.368;9.712;2024-02-21T11:24:27;100862.94;;;10.96;75.81
55068;BME280;40965;52.368;9.712;2024-02-21T11:26:56;100855.81;;;11.12;75.04
55068;BME280;40965;52.368;9.712;2024-02-21T11:29:26;100853.84;;;11.40;74.61
55068;BME280;40965;52.368;9.712;2024-02-21T11:31:55;100850.50;;;11.24;74.19
55068;BME280;40965;52.368;9.712;2024-02-21T11:34:21;100850.41;;;11.32;72.78
55068;BME280;40965;52.368;9.712;2024-02-21T11:36:50;100843.44;;;11.28;72.71
55068;BME280;40965;52.368;9.712;2024-02-21T11:39:26;100845.25;;;11.24;73.07
55068;BME280;40965;52.368;9.712;2024-02-21T11:42:06;100833.88;;;11.27;73.33
55068;BME280;40965;52.368;9.712;2024-02-21T11:44:35;100841.72;;;11.27;73.36
55068;BME280;40965;52.368;9.712;2024-02-21T11:47:04;100825.88;;;11.39;73.14
55068;BME280;40965;52.368;9.712;2024-02-21T11:49:30;100822.47;;;11.31;72.64
55068;BME280;40965;52.368;9.712;2024-02-21T11:51:58;100821.66;;;11.21;71.95
55068;BME280;40965;52.368;9.712;2024-02-21T11:54:30;100820.84;;;11.17;72.16
55068;BME280;40965;52.368;9.712;2024-02-21T11:56:56;100808.53;;;11.25;72.11
55068;BME280;40965;52.368;9.712;2024-02-21T11:59:23;100805.03;;;11.27;71.80
55068;BME280;40965;52.368;9.712;2024-02-21T12:01:50;100796.38;;;11.20;69.99
55068;BME280;40965;52.368;9.712;2024-02-21T12:04:18;100798.16;;;11.15;70.20
55068;BME280;40965;52.368;9.712;2024-02-21T12:06:46;100786.59;;;11.37;69.40
55068;BME280;40965;52.368;9.712;2024-02-21T12:09:18;100784.84;;;11.36;69.08
55068;BME280;40965;52.368;9.712;2024-02-21T12:11:45;100775.34;;;11.24;68.80
55068;BME280;40965;52.368;9.712;2024-02-21T12:14:16;100770.84;;;11.37;67.93
55068;BME280;40965;52.368;9.712;2024-02-21T12:16:43;100771.78;;;11.30;68.49
55068;BME280;40965;52.368;9.712;2024-02-21T12:19:12;100760.31;;;11.40;67.89
55068;BME280;40965;52.368;9.712;2024-02-21T12:21:42;100771.78;;;11.30;68.54
55068;BME280;40965;52.368;9.712;2024-02-21T12:24:21;100755.88;;;11.49;66.74
55068;BME280;40965;52.368;9.712;2024-02-21T12:26:49;100762.13;;;11.37;66.90
55068;BME280;40965;52.368;9.712;2024-02-21T12:29:20;100750.72;;;11.42;66.93
55068;BME280;40965;52.368;9.712;2024-02-21T12:31:48;100752.50;;;11.37;66.83
55068;BME280;40965;52.368;9.712;2024-02-21T12:34:17;100748.78;;;11.57;66.62
55068;BME280;40965;52.368;9.712;2024-02-21T12:36:45;100742.50;;;11.70;65.24
55068;BME280;40965;52.368;9.712;2024-02-21T12:39:12;100736.38;;;11.71;64.94
55068;BME280;40965;52.368;9.712;2024-02-21T12:41:39;100738.88;;;11.84;65.32
55068;BME280;40965;52.368;9.712;2024-02-21T12:44:07;100731.75;;;11.95;64.71
55068;BME280;40965;52.368;9.712;2024-02-21T12:46:35;100731.84;;;11.84;64.26
55068;BME280;40965;52.368;9.712;2024-02-21T12:49:02;100722.34;;;11.75;64.77
55068;BME280;40965;52.368;9.712;2024-02-21T12:51:32;100724.22;;;11.67;64.79
55068;BME280;40965;52.368;9.712;2024-02-21T12:53:59;100732.94;;;11.69;64.54
55068;BME280;40965;52.368;9.712;2024-02-21T12:56:26;100718.09;;;11.65;65.19
55068;BME280;40965;52.368;9.712;2024-02-21T12:58:53;100722.81;;;11.37;66.03